createdAt,value
2019-05-03T00:02:37.347Z,13.60
2019-05-03T00:05:28.397Z,13.60
2019-05-03T00:08:02.155Z,13.50
2019-05-03T00:10:32.556Z,13.50
2019-05-03T00:13:02.462Z,13.60
2019-05-03T00:15:33.850Z,13.50
2019-05-03T00:18:04.848Z,13.50
2019-05-03T00:20:34.818Z,13.50
2019-05-03T00:23:04.673Z,13.50
2019-05-03T00:25:34.785Z,13.50
2019-05-03T00:28:05.187Z,13.40
2019-05-03T00:30:35.593Z,13.40
2019-05-03T00:33:06.282Z,13.40
2019-05-03T00:35:37.654Z,13.40
2019-05-03T00:38:09.025Z,13.40
2019-05-03T00:40:39.279Z,13.30
2019-05-03T00:43:09.286Z,13.30
2019-05-03T00:45:39.199Z,13.20
2019-05-03T00:48:09.114Z,13.20
2019-05-03T00:50:39.125Z,13.20
2019-05-03T00:53:09.040Z,13.30
2019-05-03T00:55:39.050Z,13.20
2019-05-03T00:58:08.964Z,13.20
2019-05-03T01:00:39.369Z,13.00
2019-05-03T01:03:09.389Z,13.00
2019-05-03T01:05:39.491Z,13.00
2019-05-03T01:08:09.507Z,13.00
2019-05-03T01:10:39.808Z,13.10
2019-05-03T01:13:09.821Z,13.00
2019-05-03T01:15:53.792Z,13.00
2019-05-03T01:18:23.803Z,12.90
2019-05-03T01:20:53.716Z,12.90
2019-05-03T01:23:23.827Z,12.90
2019-05-03T01:25:53.740Z,12.80
2019-05-03T01:28:23.653Z,12.80
2019-05-03T01:30:53.566Z,12.80
2019-05-03T01:33:23.578Z,12.80
2019-05-03T01:35:54.573Z,12.70
2019-05-03T01:38:24.487Z,12.80
2019-05-03T01:40:54.406Z,12.80
2019-05-03T01:43:24.314Z,12.80
2019-05-03T01:45:54.227Z,12.70
2019-05-03T01:48:32.238Z,12.80
2019-05-03T01:51:11.706Z,12.80
2019-05-03T01:53:42.745Z,12.70
2019-05-03T01:56:12.662Z,12.60
2019-05-03T01:58:42.570Z,12.70
2019-05-03T02:01:16.808Z,12.80
2019-05-03T02:04:04.518Z,12.70
2019-05-03T02:06:35.184Z,12.60
2019-05-03T02:09:08.176Z,12.60
2019-05-03T02:11:38.286Z,12.60
2019-05-03T02:14:08.199Z,12.50
2019-05-03T02:16:38.113Z,12.50
2019-05-03T02:19:08.025Z,12.50
2019-05-03T02:21:37.938Z,12.60
2019-05-03T02:24:07.852Z,12.50
2019-05-03T02:26:37.767Z,12.50
2019-05-03T02:29:07.679Z,12.50
2019-05-03T02:31:37.597Z,12.50
2019-05-03T02:34:07.999Z,12.60
2019-05-03T02:36:38.108Z,12.50
2019-05-03T02:39:13.559Z,12.40
2019-05-03T02:41:47.859Z,12.40
2019-05-03T02:44:16.797Z,12.30
2019-05-03T02:46:51.426Z,12.30
2019-05-03T02:49:31.759Z,12.30
2019-05-03T02:52:01.674Z,12.30
2019-05-03T02:54:31.586Z,12.30
2019-05-03T02:57:01.501Z,12.40
2019-05-03T02:59:31.426Z,12.30
2019-05-03T03:02:02.322Z,12.30
2019-05-03T03:04:35.150Z,12.30
2019-05-03T03:07:05.835Z,12.30
2019-05-03T03:09:36.538Z,12.20
2019-05-03T03:12:08.158Z,12.20
2019-05-03T03:14:40.724Z,12.30
2019-05-03T03:17:14.945Z,12.10
2019-05-03T03:19:48.317Z,12.10
2019-05-03T03:22:25.963Z,12.10
2019-05-03T03:25:00.529Z,12.00
2019-05-03T03:27:36.123Z,12.10
2019-05-03T03:30:31.331Z,12.10
2019-05-03T03:33:08.645Z,12.10
2019-05-03T03:35:40.502Z,12.20
2019-05-03T03:38:10.807Z,12.10
2019-05-03T03:40:45.215Z,12.00
2019-05-03T03:43:18.192Z,12.10
2019-05-03T03:45:49.776Z,12.00
2019-05-03T03:48:21.801Z,12.00
2019-05-03T03:50:56.145Z,12.00
2019-05-03T03:53:30.527Z,12.00
2019-05-03T03:56:05.590Z,11.90
2019-05-03T03:58:36.124Z,11.90
2019-05-03T04:01:06.361Z,11.90
2019-05-03T04:03:46.033Z,11.80
2019-05-03T04:06:17.784Z,11.80
2019-05-03T04:08:48.098Z,11.80
2019-05-03T04:11:18.291Z,11.80
2019-05-03T04:13:49.102Z,11.70
2019-05-03T04:16:21.771Z,11.70
2019-05-03T04:18:59.646Z,11.70
2019-05-03T04:21:29.877Z,11.70
2019-05-03T04:24:00.482Z,11.70
2019-05-03T04:26:31.450Z,11.70
2019-05-03T04:29:05.079Z,11.60
2019-05-03T04:31:36.730Z,11.60
2019-05-03T04:34:06.594Z,11.60
2019-05-03T04:36:36.608Z,11.60
2019-05-03T04:39:08.411Z,11.60
2019-05-03T04:41:38.306Z,11.60
2019-05-03T04:44:08.526Z,11.60
2019-05-03T04:46:38.719Z,11.50
2019-05-03T04:49:08.732Z,11.60
2019-05-03T04:51:38.644Z,11.60
2019-05-03T04:54:25.697Z,11.60
2019-05-03T04:56:56.251Z,11.60
2019-05-03T04:59:26.472Z,11.60
2019-05-03T05:01:56.780Z,11.50
2019-05-03T05:04:26.794Z,11.50
2019-05-03T05:06:56.705Z,11.60
2019-05-03T05:09:26.918Z,11.50
2019-05-03T05:11:57.516Z,11.50
2019-05-03T05:14:27.428Z,11.50
2019-05-03T05:16:57.439Z,11.40
2019-05-03T05:19:38.363Z,11.40
2019-05-03T05:22:25.287Z,11.30
2019-05-03T05:24:56.526Z,11.30
2019-05-03T05:27:28.354Z,11.20
2019-05-03T05:29:59.198Z,11.30
2019-05-03T05:32:29.318Z,11.20
2019-05-03T05:34:59.371Z,11.20
2019-05-03T05:37:29.186Z,11.20
2019-05-03T05:39:59.399Z,11.20
2019-05-03T05:42:29.406Z,11.20
2019-05-03T05:44:59.627Z,11.20
2019-05-03T05:47:31.101Z,11.20
2019-05-03T05:50:02.690Z,11.20
2019-05-03T05:52:34.534Z,11.10
2019-05-03T05:55:16.375Z,11.20
2019-05-03T05:57:47.863Z,11.20
2019-05-03T06:00:28.689Z,11.10
2019-05-03T06:02:58.900Z,11.10
2019-05-03T06:05:28.817Z,11.00
2019-05-03T06:08:12.286Z,11.10
2019-05-03T06:10:45.099Z,11.10
2019-05-03T06:13:16.623Z,11.20
2019-05-03T06:15:50.978Z,11.20
2019-05-03T06:18:25.228Z,11.10
2019-05-03T06:21:05.939Z,11.10
2019-05-03T06:23:37.719Z,11.10
2019-05-03T06:26:09.206Z,11.00
2019-05-03T06:28:41.661Z,11.10
2019-05-03T06:31:12.211Z,11.00
2019-05-03T06:33:42.394Z,11.00
2019-05-03T06:36:12.399Z,11.00
2019-05-03T06:38:42.434Z,11.10
2019-05-03T06:41:12.326Z,11.10
2019-05-03T06:43:47.147Z,11.00
2019-05-03T06:46:16.421Z,11.00
2019-05-03T06:48:45.997Z,10.90
2019-05-03T06:51:20.032Z,11.10
2019-05-03T06:53:50.601Z,11.10
2019-05-03T06:56:25.049Z,11.10
2019-05-03T06:58:51.948Z,11.10
2019-05-03T07:01:25.361Z,11.10
2019-05-03T07:03:56.812Z,11.10
2019-05-03T07:06:37.283Z,11.00
2019-05-03T07:09:05.460Z,10.90
2019-05-03T07:11:35.514Z,11.00
2019-05-03T07:14:05.485Z,11.00
2019-05-03T07:16:35.492Z,10.90
2019-05-03T07:19:05.897Z,10.90
2019-05-03T07:21:35.809Z,10.80
2019-05-03T07:24:05.725Z,10.90
2019-05-03T07:26:35.933Z,11.00
2019-05-03T07:29:06.043Z,10.90
2019-05-03T07:31:36.251Z,10.80
2019-05-03T07:34:06.558Z,10.90
2019-05-03T07:36:36.766Z,10.90
2019-05-03T07:39:09.867Z,10.90
2019-05-03T07:41:39.850Z,10.80
2019-05-03T07:44:09.848Z,10.70
2019-05-03T07:46:40.351Z,10.70
2019-05-03T07:49:10.265Z,10.70
2019-05-03T07:51:40.178Z,10.70
2019-05-03T07:54:10.095Z,10.80
2019-05-03T07:56:41.904Z,10.80
2019-05-03T07:59:11.921Z,10.70
2019-05-03T08:01:45.611Z,10.80
2019-05-03T08:04:15.743Z,10.80
2019-05-03T08:06:45.943Z,10.70
2019-05-03T08:09:16.586Z,10.60
2019-05-03T08:11:46.562Z,10.60
2019-05-03T08:14:18.232Z,10.40
2019-05-03T08:16:48.356Z,10.50
2019-05-03T08:19:18.270Z,10.40
2019-05-03T08:21:48.184Z,10.40
2019-05-03T08:24:17.983Z,10.40
2019-05-03T08:26:47.912Z,10.50
2019-05-03T08:29:19.571Z,10.50
2019-05-03T08:32:07.561Z,10.50
2019-05-03T08:34:55.571Z,10.60
2019-05-03T08:37:28.092Z,10.60
2019-05-03T08:39:58.178Z,10.40
2019-05-03T08:42:28.388Z,10.40
2019-05-03T08:44:59.455Z,10.30
2019-05-03T08:47:29.447Z,10.30
2019-05-03T08:49:59.609Z,10.30
2019-05-03T08:52:29.513Z,10.30
2019-05-03T08:54:59.725Z,10.30
2019-05-03T08:57:29.635Z,10.40
2019-05-03T08:59:59.529Z,10.40
2019-05-03T09:02:29.750Z,10.60
2019-05-03T09:05:00.262Z,10.80
2019-05-03T09:07:30.325Z,10.90
2019-05-03T09:10:01.696Z,11.10
2019-05-03T09:12:34.323Z,11.20
2019-05-03T09:15:05.719Z,11.10
2019-05-03T09:17:36.123Z,11.10
2019-05-03T09:20:08.591Z,11.00
2019-05-03T09:22:38.391Z,10.90
2019-05-03T09:25:08.613Z,10.80
2019-05-03T09:27:38.527Z,10.80
2019-05-03T09:30:11.297Z,10.90
2019-05-03T09:32:41.203Z,11.00
2019-05-03T09:35:28.990Z,11.10
2019-05-03T09:37:47.086Z,11.20
2019-05-03T09:40:17.530Z,11.20
2019-05-03T09:42:47.958Z,11.20
2019-05-03T09:45:18.972Z,11.20
2019-05-03T09:47:49.039Z,11.20
2019-05-03T09:50:19.705Z,11.30
2019-05-03T09:52:49.851Z,11.30
2019-05-03T09:55:40.113Z,11.40
2019-05-03T09:58:10.391Z,11.40
2019-05-03T10:00:40.429Z,11.40
2019-05-03T10:03:10.640Z,11.50
2019-05-03T10:05:40.972Z,11.40
2019-05-03T10:08:10.958Z,11.30
2019-05-03T10:10:58.865Z,11.20
2019-05-03T10:13:28.780Z,11.20
2019-05-03T10:15:58.852Z,11.20
2019-05-03T10:18:28.797Z,11.30
2019-05-03T10:20:58.713Z,11.30
2019-05-03T10:23:36.291Z,11.20
2019-05-03T10:26:08.579Z,11.30
2019-05-03T10:28:38.967Z,12.00
2019-05-03T10:31:09.078Z,12.40
2019-05-03T10:33:46.371Z,12.80
2019-05-03T10:36:16.374Z,13.00
2019-05-03T10:38:47.092Z,12.80
2019-05-03T10:41:17.091Z,12.50
2019-05-03T10:43:47.197Z,12.50
2019-05-03T10:46:17.126Z,12.60
2019-05-03T10:48:47.126Z,12.80
2019-05-03T10:51:17.070Z,12.80
2019-05-03T10:53:48.722Z,12.60
2019-05-03T10:56:23.020Z,12.50
2019-05-03T10:58:58.965Z,12.80
2019-05-03T11:01:30.554Z,13.10
2019-05-03T11:04:00.562Z,14.10
2019-05-03T11:06:30.690Z,14.80
2019-05-03T11:09:02.257Z,15.00
2019-05-03T11:11:32.169Z,14.60
2019-05-03T11:14:02.084Z,14.80
2019-05-03T11:16:32.227Z,15.00
2019-05-03T11:19:02.204Z,14.90
2019-05-03T11:21:32.117Z,14.70
2019-05-03T11:24:02.128Z,14.40
2019-05-03T11:26:34.724Z,13.90
2019-05-03T11:29:05.139Z,13.70
2019-05-03T11:31:45.991Z,13.40
2019-05-03T11:34:18.780Z,13.80
2019-05-03T11:36:50.715Z,13.70
2019-05-03T11:39:20.877Z,14.00
2019-05-03T11:41:55.314Z,14.10
2019-05-03T11:44:40.562Z,14.30
2019-05-03T11:47:10.675Z,15.40
2019-05-03T11:49:40.881Z,15.90
2019-05-03T11:52:10.793Z,15.90
2019-05-03T11:54:40.804Z,15.60
2019-05-03T11:57:15.837Z,15.70
2019-05-03T11:59:46.292Z,15.50
2019-05-03T12:02:30.214Z,16.30
2019-05-03T12:05:02.052Z,15.90
2019-05-03T12:07:39.031Z,16.20
2019-05-03T12:10:17.226Z,16.30
2019-05-03T12:12:41.557Z,16.10
2019-05-03T12:15:12.063Z,16.00
2019-05-03T12:17:52.036Z,16.00
2019-05-03T12:20:18.213Z,15.50
2019-05-03T12:22:48.599Z,15.50
2019-05-03T12:25:19.580Z,15.90
2019-05-03T12:27:49.861Z,15.90
2019-05-03T12:30:20.099Z,15.90
2019-05-03T12:32:50.311Z,15.90
2019-05-03T12:35:20.412Z,16.10
2019-05-03T12:37:50.326Z,16.10
2019-05-03T12:40:20.336Z,15.90
2019-05-03T12:42:50.251Z,15.40
2019-05-03T12:45:20.264Z,15.60
2019-05-03T12:47:50.175Z,15.40
2019-05-03T12:50:20.193Z,15.10
2019-05-03T12:52:50.845Z,14.80
2019-05-03T12:55:21.099Z,14.30
2019-05-03T12:57:51.211Z,14.10
2019-05-03T13:00:40.096Z,14.00
2019-05-03T13:03:15.221Z,14.00
2019-05-03T13:05:45.620Z,14.30
2019-05-03T13:08:37.262Z,14.40
2019-05-03T13:11:07.863Z,14.20
2019-05-03T13:13:37.774Z,14.10
2019-05-03T13:16:10.350Z,14.20
2019-05-03T13:18:40.356Z,14.30
2019-05-03T13:21:10.273Z,14.50
2019-05-03T13:23:40.277Z,14.80
2019-05-03T13:26:10.308Z,15.00
2019-05-03T13:28:40.202Z,14.80
2019-05-03T13:31:10.127Z,15.10
2019-05-03T13:33:40.030Z,15.50
2019-05-03T13:36:10.042Z,15.80
2019-05-03T13:38:39.955Z,15.90
2019-05-03T13:41:09.879Z,16.10
2019-05-03T13:43:39.782Z,15.80
2019-05-03T13:46:09.892Z,15.60
2019-05-03T13:48:45.257Z,15.40
2019-05-03T13:51:11.687Z,15.30
2019-05-03T13:53:41.993Z,14.90
2019-05-03T13:56:11.906Z,14.60
2019-05-03T13:58:44.443Z,14.50
2019-05-03T14:01:14.870Z,14.40
2019-05-03T14:03:45.398Z,14.30
2019-05-03T14:06:15.393Z,14.30
2019-05-03T14:08:45.615Z,14.30
2019-05-03T14:11:15.732Z,14.30
2019-05-03T14:13:45.820Z,14.30
2019-05-03T14:16:15.736Z,14.60
2019-05-03T14:18:47.223Z,14.50
2019-05-03T14:21:21.753Z,14.70
2019-05-03T14:24:10.542Z,14.80
2019-05-03T14:26:42.140Z,15.00
2019-05-03T14:29:14.631Z,15.30
2019-05-03T14:31:45.386Z,15.40
2019-05-03T14:34:17.534Z,15.40
2019-05-03T14:36:48.170Z,15.40
2019-05-03T14:39:18.378Z,15.30
2019-05-03T14:41:48.293Z,15.40
2019-05-03T14:44:18.428Z,15.40
2019-05-03T14:46:48.315Z,15.50
2019-05-03T14:49:18.817Z,15.40
2019-05-03T14:51:49.032Z,15.30
2019-05-03T14:54:20.367Z,15.40
2019-05-03T14:57:09.791Z,15.30
2019-05-03T14:59:41.375Z,15.30
2019-05-03T15:02:40.239Z,15.10
2019-05-03T15:05:01.158Z,15.00
2019-05-03T15:07:31.071Z,15.10
2019-05-03T15:10:01.185Z,15.10
2019-05-03T15:12:31.095Z,15.10
2019-05-03T15:15:01.340Z,14.90
2019-05-03T15:17:31.414Z,14.80
2019-05-03T15:20:01.328Z,14.80
2019-05-03T15:22:31.438Z,14.70
2019-05-03T15:25:01.371Z,14.80
2019-05-03T15:27:31.266Z,14.80
2019-05-03T15:30:01.178Z,14.80
2019-05-03T15:32:31.189Z,14.90
2019-05-03T15:35:01.400Z,14.90
2019-05-03T15:37:31.312Z,14.90
2019-05-03T15:40:01.676Z,14.80
2019-05-03T15:42:31.926Z,14.90
2019-05-03T15:45:14.531Z,15.10
2019-05-03T15:47:45.611Z,15.20
2019-05-03T15:50:16.115Z,15.40
2019-05-03T15:52:46.225Z,15.40
2019-05-03T15:55:16.337Z,15.50
2019-05-03T15:57:46.250Z,15.50
2019-05-03T16:00:18.549Z,15.60
2019-05-03T16:02:48.537Z,15.40
2019-05-03T16:05:18.453Z,15.30
2019-05-03T16:07:48.557Z,15.10
2019-05-03T16:10:18.569Z,15.20
2019-05-03T16:12:48.481Z,15.10
2019-05-03T16:15:18.592Z,15.20
2019-05-03T16:17:48.506Z,15.20
2019-05-03T16:20:18.910Z,15.10
2019-05-03T16:22:49.024Z,15.00
2019-05-03T16:25:19.327Z,14.90
2019-05-03T16:27:50.694Z,14.80
2019-05-03T16:30:25.706Z,14.70
2019-05-03T16:32:55.652Z,14.80
2019-05-03T16:35:25.961Z,14.70
2019-05-03T16:37:57.706Z,14.60
2019-05-03T16:40:28.665Z,14.50
2019-05-03T16:42:58.654Z,14.50
2019-05-03T16:45:28.859Z,14.60
2019-05-03T16:47:59.068Z,14.50
2019-05-03T16:50:29.470Z,14.40
2019-05-03T16:52:59.386Z,14.40
2019-05-03T16:55:29.299Z,14.40
2019-05-03T16:57:59.494Z,14.40
2019-05-03T17:00:29.518Z,14.40
2019-05-03T17:03:00.507Z,14.40
2019-05-03T17:05:47.137Z,14.30
2019-05-03T17:08:34.965Z,14.30
2019-05-03T17:11:06.532Z,14.20
2019-05-03T17:13:36.638Z,14.20
2019-05-03T17:16:06.948Z,14.30
2019-05-03T17:18:36.858Z,14.20
2019-05-03T17:21:08.042Z,14.30
2019-05-03T17:23:38.060Z,14.20
2019-05-03T17:26:08.083Z,14.20
2019-05-03T17:28:38.575Z,14.20
2019-05-03T17:31:08.685Z,14.20
2019-05-03T17:33:50.147Z,14.20
2019-05-03T17:36:10.585Z,14.10
2019-05-03T17:38:40.887Z,14.10
2019-05-03T17:41:18.671Z,14.00
2019-05-03T17:43:54.486Z,14.00
2019-05-03T17:46:25.515Z,13.90
2019-05-03T17:48:55.677Z,13.90
2019-05-03T17:51:39.314Z,13.80
2019-05-03T17:54:29.041Z,13.70
2019-05-03T17:57:16.778Z,13.70
2019-05-03T17:59:57.084Z,13.70
2019-05-03T18:02:45.135Z,13.60
2019-05-03T18:05:34.435Z,13.50
2019-05-03T18:08:18.519Z,13.60
2019-05-03T18:10:56.405Z,13.50
2019-05-03T18:13:26.401Z,13.50
2019-05-03T18:15:56.471Z,13.50
2019-05-03T18:18:26.432Z,13.40
2019-05-03T18:20:56.561Z,13.40
2019-05-03T18:23:26.552Z,13.40
2019-05-03T18:25:56.459Z,13.40
2019-05-03T18:28:26.473Z,13.30
2019-05-03T18:30:56.680Z,13.30
2019-05-03T18:33:26.692Z,13.30
2019-05-03T18:35:56.704Z,13.30
2019-05-03T18:38:26.719Z,13.30
2019-05-03T18:40:56.731Z,13.20
2019-05-03T18:43:30.887Z,13.20
2019-05-03T18:46:14.645Z,13.20
2019-05-03T18:48:44.948Z,13.10
2019-05-03T18:51:14.883Z,13.10
2019-05-03T18:53:45.125Z,13.10
2019-05-03T18:56:15.065Z,13.00
2019-05-03T18:58:45.198Z,13.00
2019-05-03T19:01:15.229Z,13.00
2019-05-03T19:03:46.887Z,13.00
2019-05-03T19:06:18.927Z,13.00
2019-05-03T19:09:05.170Z,12.90
2019-05-03T19:11:48.379Z,12.90
2019-05-03T19:14:22.432Z,12.80
2019-05-03T19:16:56.661Z,12.80
2019-05-03T19:19:31.691Z,12.90
2019-05-03T19:22:01.490Z,12.80
2019-05-03T19:24:31.517Z,12.80
2019-05-03T19:27:01.453Z,12.70
2019-05-03T19:29:31.248Z,12.70
2019-05-03T19:32:01.180Z,12.70
2019-05-03T19:34:30.987Z,12.70
2019-05-03T19:37:01.127Z,12.60
2019-05-03T19:39:31.386Z,12.60
2019-05-03T19:42:01.296Z,12.60
2019-05-03T19:44:31.411Z,12.60
2019-05-03T19:47:01.361Z,12.50
2019-05-03T19:49:31.432Z,12.50
2019-05-03T19:52:01.380Z,12.40
2019-05-03T19:54:31.659Z,12.40
2019-05-03T19:57:01.569Z,12.40
2019-05-03T19:59:49.470Z,12.40
2019-05-03T20:02:27.684Z,12.40
2019-05-03T20:05:15.255Z,12.40
2019-05-03T20:07:46.673Z,12.30
2019-05-03T20:10:18.130Z,12.40
2019-05-03T20:12:48.625Z,12.40
2019-05-03T20:15:18.737Z,12.30
2019-05-03T20:17:59.329Z,12.30
2019-05-03T20:20:20.823Z,12.40
2019-05-03T20:22:50.836Z,12.30
2019-05-03T20:25:21.086Z,12.30
2019-05-03T20:27:51.125Z,12.30
2019-05-03T20:30:21.265Z,12.30
2019-05-03T20:32:51.276Z,12.30
2019-05-03T20:35:21.287Z,12.30
2019-05-03T20:37:51.200Z,12.30
2019-05-03T20:40:21.116Z,12.30
2019-05-03T20:43:09.017Z,12.30
2019-05-03T20:45:44.567Z,12.30
2019-05-03T20:48:16.514Z,12.30
2019-05-03T20:50:46.623Z,12.30
2019-05-03T20:53:16.783Z,12.30
2019-05-03T20:55:46.759Z,12.20
2019-05-03T20:58:16.659Z,12.20
2019-05-03T21:00:47.043Z,12.30
2019-05-03T21:03:17.370Z,12.20
2019-05-03T21:05:47.480Z,12.20
2019-05-03T21:08:17.439Z,12.20
2019-05-03T21:10:47.414Z,12.20
2019-05-03T21:13:17.513Z,12.20
2019-05-03T21:15:48.882Z,12.20
2019-05-03T21:18:20.421Z,12.20
2019-05-03T21:23:49.575Z,12.10
2019-05-03T21:26:19.739Z,12.10
2019-05-03T21:28:49.729Z,12.10
2019-05-03T21:31:19.642Z,12.10
2019-05-03T21:33:49.658Z,12.10
2019-05-03T21:36:19.462Z,12.10
2019-05-03T21:38:49.679Z,12.10
2019-05-03T21:41:20.088Z,12.10
2019-05-03T21:43:50.001Z,12.10
2019-05-03T21:46:21.928Z,12.10
2019-05-03T21:48:55.391Z,12.00
2019-05-03T21:51:25.563Z,12.00
2019-05-03T21:53:55.652Z,12.00
2019-05-03T21:56:25.661Z,12.00
2019-05-03T21:58:55.671Z,12.00
2019-05-03T22:01:26.136Z,12.00
2019-05-03T22:03:56.088Z,12.00
2019-05-03T22:06:26.198Z,11.90
2019-05-03T22:08:58.330Z,11.90
2019-05-03T22:11:28.187Z,11.90
2019-05-03T22:14:01.638Z,11.90
2019-05-03T22:16:36.113Z,11.90
2019-05-03T22:19:06.778Z,11.90
2019-05-03T22:21:56.551Z,11.90
2019-05-03T22:24:28.039Z,11.90
2019-05-03T22:26:59.617Z,11.90
2019-05-03T22:29:29.535Z,11.90
2019-05-03T22:31:59.727Z,11.90
2019-05-03T22:34:29.754Z,11.90
2019-05-03T22:36:59.571Z,11.90
2019-05-03T22:39:29.777Z,11.80
2019-05-03T22:41:59.692Z,11.80
2019-05-03T22:44:29.708Z,11.80
2019-05-03T22:46:59.633Z,11.80
2019-05-03T22:49:29.715Z,11.70
2019-05-03T22:51:59.626Z,11.70
2019-05-03T22:54:29.749Z,11.70
2019-05-03T22:57:00.024Z,11.70
2019-05-03T22:59:30.956Z,11.70
2019-05-03T23:02:00.873Z,11.70
2019-05-03T23:04:30.878Z,11.70
2019-05-03T23:07:00.788Z,11.70
2019-05-03T23:09:31.291Z,11.70
2019-05-03T23:12:01.304Z,11.60
2019-05-03T23:14:31.315Z,11.70
2019-05-03T23:17:01.230Z,11.70
2019-05-03T23:19:32.814Z,11.70
2019-05-03T23:22:04.895Z,11.60
2019-05-03T23:24:35.366Z,11.70
2019-05-03T23:27:05.522Z,11.60
2019-05-03T23:29:35.428Z,11.60
2019-05-03T23:32:05.929Z,11.60
2019-05-03T23:34:35.933Z,11.50
2019-05-03T23:37:05.964Z,11.50
2019-05-03T23:39:35.978Z,11.50
2019-05-03T23:42:06.674Z,11.50
2019-05-03T23:44:36.704Z,11.50
2019-05-03T23:47:11.004Z,11.50
2019-05-03T23:49:41.020Z,11.60
2019-05-03T23:52:12.856Z,11.50
2019-05-03T23:54:43.602Z,11.50
2019-05-03T23:57:14.426Z,11.50
2019-05-03T23:59:44.992Z,11.50
